sensor_id;sensor_type;location;lat;lon;timestamp;P1;durP1;ratioP1;P2;durP2;ratioP2
19113;SDS011;9689;51.052;13.772;2023-03-11T00:04:25;0.40;;;0.32;;
19113;SDS011;9689;51.052;13.772;2023-03-11T00:09:26;1.02;;;0.77;;
19113;SDS011;9689;51.052;13.772;2023-03-11T00:14:28;0.98;;;0.50;;
19113;SDS011;9689;51.052;13.772;2023-03-11T00:19:28;0.90;;;0.70;;
19113;SDS011;9689;51.052;13.772;2023-03-11T00:24:30;1.42;;;0.80;;
19113;SDS011;9689;51.052;13.772;2023-03-11T00:29:32;2.20;;;0.80;;
19113;SDS011;9689;51.052;13.772;2023-03-11T00:34:32;0.70;;;0.55;;
19113;SDS011;9689;51.052;13.772;2023-03-11T00:39:33;1.20;;;0.73;;
19113;SDS011;9689;51.052;13.772;2023-03-11T00:44:35;0.95;;;0.80;;
19113;SDS011;9689;51.052;13.772;2023-03-11T00:49:36;1.27;;;0.77;;
19113;SDS011;9689;51.052;13.772;2023-03-11T00:54:37;1.08;;;0.88;;
19113;SDS011;9689;51.052;13.772;2023-03-11T00:59:39;1.08;;;0.80;;
19113;SDS011;9689;51.052;13.772;2023-03-11T01:04:40;1.27;;;0.93;;
19113;SDS011;9689;51.052;13.772;2023-03-11T01:09:40;1.27;;;0.82;;
19113;SDS011;9689;51.052;13.772;2023-03-11T01:14:43;1.27;;;0.85;;
19113;SDS011;9689;51.052;13.772;2023-03-11T01:19:43;1.02;;;0.80;;
19113;SDS011;9689;51.052;13.772;2023-03-11T01:24:44;0.80;;;0.80;;
19113;SDS011;9689;51.052;13.772;2023-03-11T01:29:46;0.77;;;0.75;;
19113;SDS011;9689;51.052;13.772;2023-03-11T01:34:47;0.60;;;0.60;;
19113;SDS011;9689;51.052;13.772;2023-03-11T01:39:48;1.42;;;0.80;;
19113;SDS011;9689;51.052;13.772;2023-03-11T01:44:50;1.00;;;0.70;;
19113;SDS011;9689;51.052;13.772;2023-03-11T01:49:51;2.30;;;1.00;;
19113;SDS011;9689;51.052;13.772;2023-03-11T01:54:52;1.10;;;1.00;;
19113;SDS011;9689;51.052;13.772;2023-03-11T01:59:55;1.83;;;1.20;;
19113;SDS011;9689;51.052;13.772;2023-03-11T02:04:58;1.88;;;1.38;;
19113;SDS011;9689;51.052;13.772;2023-03-11T02:10:02;1.83;;;1.20;;
19113;SDS011;9689;51.052;13.772;2023-03-11T02:15:07;1.38;;;1.20;;
19113;SDS011;9689;51.052;13.772;2023-03-11T02:20:13;4.82;;;1.30;;
19113;SDS011;9689;51.052;13.772;2023-03-11T02:25:22;1.77;;;1.33;;
19113;SDS011;9689;51.052;13.772;2023-03-11T02:30:29;1.23;;;1.10;;
19113;SDS011;9689;51.052;13.772;2023-03-11T02:35:34;1.70;;;1.17;;
19113;SDS011;9689;51.052;13.772;2023-03-11T02:45:58;1.48;;;1.30;;
19113;SDS011;9689;51.052;13.772;2023-03-11T02:50:59;1.73;;;1.50;;
19113;SDS011;9689;51.052;13.772;2023-03-11T02:56:01;2.05;;;1.23;;
19113;SDS011;9689;51.052;13.772;2023-03-11T03:01:06;1.40;;;1.30;;
19113;SDS011;9689;51.052;13.772;2023-03-11T03:06:07;1.88;;;1.40;;
19113;SDS011;9689;51.052;13.772;2023-03-11T03:11:08;1.98;;;1.48;;
19113;SDS011;9689;51.052;13.772;2023-03-11T03:16:12;2.50;;;1.35;;
19113;SDS011;9689;51.052;13.772;2023-03-11T03:21:13;1.38;;;1.20;;
19113;SDS011;9689;51.052;13.772;2023-03-11T03:26:14;1.20;;;1.10;;
19113;SDS011;9689;51.052;13.772;2023-03-11T03:31:19;3.35;;;1.60;;
19113;SDS011;9689;51.052;13.772;2023-03-11T03:36:20;5.85;;;1.90;;
19113;SDS011;9689;51.052;13.772;2023-03-11T03:41:26;3.38;;;2.05;;
19113;SDS011;9689;51.052;13.772;2023-03-11T03:46:29;3.15;;;2.22;;
19113;SDS011;9689;51.052;13.772;2023-03-11T03:51:31;4.47;;;2.95;;
19113;SDS011;9689;51.052;13.772;2023-03-11T03:56:44;3.35;;;2.67;;
19113;SDS011;9689;51.052;13.772;2023-03-11T04:01:47;4.10;;;3.00;;
19113;SDS011;9689;51.052;13.772;2023-03-11T04:06:49;5.93;;;3.78;;
19113;SDS011;9689;51.052;13.772;2023-03-11T04:11:50;6.22;;;4.30;;
19113;SDS011;9689;51.052;13.772;2023-03-11T04:16:53;5.68;;;4.30;;
19113;SDS011;9689;51.052;13.772;2023-03-11T04:21:54;6.50;;;4.68;;
19113;SDS011;9689;51.052;13.772;2023-03-11T04:26:56;7.75;;;5.03;;
19113;SDS011;9689;51.052;13.772;2023-03-11T04:31:58;7.95;;;4.82;;
19113;SDS011;9689;51.052;13.772;2023-03-11T04:37:00;9.63;;;5.43;;
19113;SDS011;9689;51.052;13.772;2023-03-11T04:42:05;7.47;;;5.15;;
19113;SDS011;9689;51.052;13.772;2023-03-11T04:47:08;9.25;;;5.68;;
19113;SDS011;9689;51.052;13.772;2023-03-11T04:52:10;9.10;;;5.85;;
19113;SDS011;9689;51.052;13.772;2023-03-11T04:57:11;9.32;;;6.05;;
19113;SDS011;9689;51.052;13.772;2023-03-11T05:02:16;10.73;;;6.90;;
19113;SDS011;9689;51.052;13.772;2023-03-11T05:07:24;8.68;;;5.60;;
19113;SDS011;9689;51.052;13.772;2023-03-11T05:12:25;8.40;;;4.85;;
19113;SDS011;9689;51.052;13.772;2023-03-11T05:17:28;7.13;;;5.00;;
19113;SDS011;9689;51.052;13.772;2023-03-11T05:22:29;8.50;;;5.07;;
19113;SDS011;9689;51.052;13.772;2023-03-11T05:27:30;7.75;;;5.35;;
19113;SDS011;9689;51.052;13.772;2023-03-11T05:32:32;7.10;;;4.97;;
19113;SDS011;9689;51.052;13.772;2023-03-11T05:37:33;9.57;;;5.47;;
19113;SDS011;9689;51.052;13.772;2023-03-11T05:42:37;8.00;;;5.22;;
19113;SDS011;9689;51.052;13.772;2023-03-11T05:47:42;5.68;;;4.18;;
19113;SDS011;9689;51.052;13.772;2023-03-11T05:52:45;7.47;;;5.05;;
19113;SDS011;9689;51.052;13.772;2023-03-11T05:57:49;7.85;;;5.45;;
19113;SDS011;9689;51.052;13.772;2023-03-11T06:02:52;9.18;;;5.45;;
19113;SDS011;9689;51.052;13.772;2023-03-11T06:07:52;7.47;;;4.93;;
19113;SDS011;9689;51.052;13.772;2023-03-11T06:12:54;7.88;;;5.18;;
19113;SDS011;9689;51.052;13.772;2023-03-11T06:18:07;9.70;;;5.82;;
19113;SDS011;9689;51.052;13.772;2023-03-11T06:23:08;9.65;;;6.05;;
19113;SDS011;9689;51.052;13.772;2023-03-11T06:28:09;11.95;;;6.80;;
19113;SDS011;9689;51.052;13.772;2023-03-11T06:33:13;11.98;;;7.43;;
19113;SDS011;9689;51.052;13.772;2023-03-11T06:38:14;12.30;;;7.38;;
19113;SDS011;9689;51.052;13.772;2023-03-11T06:43:15;11.73;;;7.22;;
19113;SDS011;9689;51.052;13.772;2023-03-11T06:48:19;9.30;;;6.57;;
19113;SDS011;9689;51.052;13.772;2023-03-11T06:53:21;11.23;;;7.28;;
19113;SDS011;9689;51.052;13.772;2023-03-11T06:58:22;12.82;;;7.63;;
19113;SDS011;9689;51.052;13.772;2023-03-11T07:03:24;11.88;;;7.50;;
19113;SDS011;9689;51.052;13.772;2023-03-11T07:08:25;12.55;;;7.95;;
19113;SDS011;9689;51.052;13.772;2023-03-11T07:13:26;13.80;;;7.90;;
19113;SDS011;9689;51.052;13.772;2023-03-11T07:18:29;17.90;;;7.70;;
19113;SDS011;9689;51.052;13.772;2023-03-11T07:23:30;13.23;;;7.40;;
19113;SDS011;9689;51.052;13.772;2023-03-11T07:28:31;15.02;;;8.02;;
19113;SDS011;9689;51.052;13.772;2023-03-11T07:33:33;14.32;;;8.45;;
19113;SDS011;9689;51.052;13.772;2023-03-11T07:38:34;16.33;;;8.82;;
19113;SDS011;9689;51.052;13.772;2023-03-11T07:43:35;15.23;;;8.98;;
19113;SDS011;9689;51.052;13.772;2023-03-11T07:48:38;14.98;;;8.80;;
19113;SDS011;9689;51.052;13.772;2023-03-11T07:53:39;13.93;;;8.20;;
19113;SDS011;9689;51.052;13.772;2023-03-11T07:58:41;16.25;;;8.38;;
19113;SDS011;9689;51.052;13.772;2023-03-11T08:03:46;15.57;;;8.52;;
19113;SDS011;9689;51.052;13.772;2023-03-11T08:08:49;12.80;;;7.57;;
19113;SDS011;9689;51.052;13.772;2023-03-11T08:13:51;16.33;;;8.35;;
19113;SDS011;9689;51.052;13.772;2023-03-11T08:18:54;15.27;;;7.90;;
19113;SDS011;9689;51.052;13.772;2023-03-11T08:23:55;14.10;;;7.70;;
19113;SDS011;9689;51.052;13.772;2023-03-11T08:28:57;13.35;;;8.50;;
19113;SDS011;9689;51.052;13.772;2023-03-11T08:34:00;15.15;;;8.65;;
19113;SDS011;9689;51.052;13.772;2023-03-11T08:39:03;15.27;;;8.88;;
19113;SDS011;9689;51.052;13.772;2023-03-11T08:44:04;14.82;;;8.57;;
19113;SDS011;9689;51.052;13.772;2023-03-11T08:49:06;16.20;;;10.15;;
19113;SDS011;9689;51.052;13.772;2023-03-11T08:54:07;16.25;;;9.55;;
19113;SDS011;9689;51.052;13.772;2023-03-11T08:59:08;15.65;;;9.85;;
19113;SDS011;9689;51.052;13.772;2023-03-11T09:04:10;12.60;;;8.23;;
19113;SDS011;9689;51.052;13.772;2023-03-11T09:09:11;14.35;;;8.05;;
19113;SDS011;9689;51.052;13.772;2023-03-11T09:14:12;16.38;;;8.55;;
19113;SDS011;9689;51.052;13.772;2023-03-11T09:19:14;17.50;;;8.68;;
19113;SDS011;9689;51.052;13.772;2023-03-11T09:24:15;13.98;;;8.45;;
19113;SDS011;9689;51.052;13.772;2023-03-11T09:29:16;15.32;;;9.40;;
19113;SDS011;9689;51.052;13.772;2023-03-11T09:34:18;15.93;;;10.18;;
19113;SDS011;9689;51.052;13.772;2023-03-11T09:39:19;18.58;;;9.93;;
19113;SDS011;9689;51.052;13.772;2023-03-11T09:44:21;22.35;;;10.60;;
19113;SDS011;9689;51.052;13.772;2023-03-11T09:49:30;16.67;;;10.32;;
19113;SDS011;9689;51.052;13.772;2023-03-11T09:54:42;16.63;;;9.93;;
19113;SDS011;9689;51.052;13.772;2023-03-11T09:59:46;19.00;;;9.65;;
19113;SDS011;9689;51.052;13.772;2023-03-11T10:04:50;15.88;;;9.27;;
19113;SDS011;9689;51.052;13.772;2023-03-11T10:09:56;13.32;;;8.02;;
19113;SDS011;9689;51.052;13.772;2023-03-11T10:15:04;14.00;;;8.30;;
19113;SDS011;9689;51.052;13.772;2023-03-11T10:20:16;13.32;;;8.02;;
19113;SDS011;9689;51.052;13.772;2023-03-11T10:25:21;14.10;;;7.95;;
19113;SDS011;9689;51.052;13.772;2023-03-11T10:30:26;12.25;;;8.05;;
19113;SDS011;9689;51.052;13.772;2023-03-11T10:35:35;14.73;;;8.93;;
19113;SDS011;9689;51.052;13.772;2023-03-11T10:40:38;13.32;;;8.45;;
19113;SDS011;9689;51.052;13.772;2023-03-11T10:45:43;17.60;;;8.43;;
19113;SDS011;9689;51.052;13.772;2023-03-11T10:50:51;12.70;;;7.72;;
19113;SDS011;9689;51.052;13.772;2023-03-11T10:55:57;11.88;;;7.05;;
19113;SDS011;9689;51.052;13.772;2023-03-11T11:00:59;15.02;;;8.45;;
19113;SDS011;9689;51.052;13.772;2023-03-11T11:06:06;11.90;;;7.05;;
19113;SDS011;9689;51.052;13.772;2023-03-11T11:11:20;12.15;;;6.63;;
19113;SDS011;9689;51.052;13.772;2023-03-11T11:16:22;11.05;;;6.82;;
19113;SDS011;9689;51.052;13.772;2023-03-11T11:21:30;12.10;;;7.80;;
19113;SDS011;9689;51.052;13.772;2023-03-11T11:26:33;16.58;;;8.23;;
19113;SDS011;9689;51.052;13.772;2023-03-11T11:31:34;13.85;;;7.53;;
19113;SDS011;9689;51.052;13.772;2023-03-11T11:36:37;14.98;;;7.45;;
19113;SDS011;9689;51.052;13.772;2023-03-11T11:41:38;24.52;;;7.50;;
19113;SDS011;9689;51.052;13.772;2023-03-11T11:46:39;9.15;;;5.57;;
19113;SDS011;9689;51.052;13.772;2023-03-11T11:51:45;9.50;;;5.47;;
19113;SDS011;9689;51.052;13.772;2023-03-11T11:56:50;10.25;;;5.45;;
19113;SDS011;9689;51.052;13.772;2023-03-11T12:01:57;12.93;;;6.07;;
19113;SDS011;9689;51.052;13.772;2023-03-11T12:07:11;8.70;;;5.00;;
19113;SDS011;9689;51.052;13.772;2023-03-11T12:12:26;8.40;;;5.38;;
19113;SDS011;9689;51.052;13.772;2023-03-11T12:17:38;8.20;;;5.43;;
19113;SDS011;9689;51.052;13.772;2023-03-11T12:22:51;9.63;;;5.85;;
19113;SDS011;9689;51.052;13.772;2023-03-11T12:28:04;10.75;;;6.15;;
19113;SDS011;9689;51.052;13.772;2023-03-11T12:33:16;9.13;;;5.53;;
19113;SDS011;9689;51.052;13.772;2023-03-11T12:38:27;9.25;;;5.65;;
19113;SDS011;9689;51.052;13.772;2023-03-11T12:49:04;8.45;;;5.13;;
19113;SDS011;9689;51.052;13.772;2023-03-11T12:54:26;9.82;;;5.50;;
19113;SDS011;9689;51.052;13.772;2023-03-11T12:59:35;8.73;;;5.65;;
19113;SDS011;9689;51.052;13.772;2023-03-11T13:04:55;12.70;;;6.15;;
19113;SDS011;9689;51.052;13.772;2023-03-11T13:10:01;10.77;;;6.25;;
19113;SDS011;9689;51.052;13.772;2023-03-11T13:20:42;9.18;;;6.18;;
19113;SDS011;9689;51.052;13.772;2023-03-11T13:26:13;12.27;;;5.28;;
19113;SDS011;9689;51.052;13.772;2023-03-11T13:31:32;12.75;;;5.75;;
19113;SDS011;9689;51.052;13.772;2023-03-11T13:36:48;9.82;;;6.20;;
19113;SDS011;9689;51.052;13.772;2023-03-11T13:41:57;10.15;;;5.25;;
19113;SDS011;9689;51.052;13.772;2023-03-11T13:47:00;7.25;;;4.55;;
19113;SDS011;9689;51.052;13.772;2023-03-11T13:52:06;9.57;;;4.70;;
19113;SDS011;9689;51.052;13.772;2023-03-11T13:57:26;9.43;;;5.20;;
19113;SDS011;9689;51.052;13.772;2023-03-11T14:02:29;14.85;;;5.70;;
19113;SDS011;9689;51.052;13.772;2023-03-11T14:07:31;7.18;;;4.95;;
19113;SDS011;9689;51.052;13.772;2023-03-11T14:12:34;8.95;;;4.75;;
19113;SDS011;9689;51.052;13.772;2023-03-11T14:17:35;7.38;;;4.45;;
19113;SDS011;9689;51.052;13.772;2023-03-11T14:22:36;10.50;;;4.05;;
19113;SDS011;9689;51.052;13.772;2023-03-11T14:27:39;10.40;;;3.70;;
19113;SDS011;9689;51.052;13.772;2023-03-11T14:32:54;7.45;;;4.18;;
19113;SDS011;9689;51.052;13.772;2023-03-11T14:37:57;7.20;;;4.05;;
19113;SDS011;9689;51.052;13.772;2023-03-11T14:43:00;7.30;;;4.28;;
19113;SDS011;9689;51.052;13.772;2023-03-11T14:48:03;6.30;;;3.83;;
19113;SDS011;9689;51.052;13.772;2023-03-11T14:53:11;6.57;;;4.00;;
19113;SDS011;9689;51.052;13.772;2023-03-11T14:58:19;7.30;;;4.40;;
19113;SDS011;9689;51.052;13.772;2023-03-11T15:03:27;7.32;;;4.18;;
19113;SDS011;9689;51.052;13.772;2023-03-11T15:08:30;8.63;;;4.32;;
19113;SDS011;9689;51.052;13.772;2023-03-11T15:13:37;6.97;;;3.90;;
19113;SDS011;9689;51.052;13.772;2023-03-11T15:18:39;5.80;;;3.70;;
19113;SDS011;9689;51.052;13.772;2023-03-11T15:23:43;8.65;;;3.95;;
19113;SDS011;9689;51.052;13.772;2023-03-11T15:28:47;9.85;;;4.43;;
19113;SDS011;9689;51.052;13.772;2023-03-11T15:33:53;7.90;;;3.97;;
19113;SDS011;9689;51.052;13.772;2023-03-11T15:39:11;6.32;;;3.67;;
19113;SDS011;9689;51.052;13.772;2023-03-11T15:44:26;10.32;;;3.83;;
19113;SDS011;9689;51.052;13.772;2023-03-11T15:49:29;6.13;;;3.45;;
19113;SDS011;9689;51.052;13.772;2023-03-11T15:54:30;8.45;;;3.63;;
19113;SDS011;9689;51.052;13.772;2023-03-11T15:59:32;7.22;;;3.72;;
19113;SDS011;9689;51.052;13.772;2023-03-11T16:04:34;6.93;;;3.92;;
19113;SDS011;9689;51.052;13.772;2023-03-11T16:09:35;10.00;;;3.45;;
19113;SDS011;9689;51.052;13.772;2023-03-11T16:14:37;7.63;;;4.30;;
19113;SDS011;9689;51.052;13.772;2023-03-11T16:19:38;6.78;;;3.70;;
19113;SDS011;9689;51.052;13.772;2023-03-11T16:24:39;8.15;;;3.92;;
19113;SDS011;9689;51.052;13.772;2023-03-11T16:29:43;5.63;;;3.88;;
19113;SDS011;9689;51.052;13.772;2023-03-11T16:34:44;11.57;;;4.60;;
19113;SDS011;9689;51.052;13.772;2023-03-11T16:39:45;5.95;;;3.72;;
19113;SDS011;9689;51.052;13.772;2023-03-11T16:44:47;7.28;;;4.00;;
19113;SDS011;9689;51.052;13.772;2023-03-11T16:49:48;8.85;;;4.70;;
19113;SDS011;9689;51.052;13.772;2023-03-11T16:54:51;7.78;;;4.28;;
19113;SDS011;9689;51.052;13.772;2023-03-11T16:59:53;7.63;;;4.28;;
19113;SDS011;9689;51.052;13.772;2023-03-11T17:04:54;9.15;;;4.45;;
19113;SDS011;9689;51.052;13.772;2023-03-11T17:09:55;6.97;;;4.03;;
19113;SDS011;9689;51.052;13.772;2023-03-11T17:14:58;7.70;;;5.05;;
19113;SDS011;9689;51.052;13.772;2023-03-11T17:19:59;8.35;;;4.47;;
19113;SDS011;9689;51.052;13.772;2023-03-11T17:25:02;7.88;;;4.70;;
19113;SDS011;9689;51.052;13.772;2023-03-11T17:30:06;13.15;;;5.38;;
19113;SDS011;9689;51.052;13.772;2023-03-11T17:35:08;6.65;;;4.80;;
19113;SDS011;9689;51.052;13.772;2023-03-11T17:40:09;9.18;;;4.93;;
19113;SDS011;9689;51.052;13.772;2023-03-11T17:45:12;11.35;;;5.43;;
19113;SDS011;9689;51.052;13.772;2023-03-11T17:50:13;6.50;;;4.65;;
19113;SDS011;9689;51.052;13.772;2023-03-11T17:55:15;7.82;;;4.60;;
19113;SDS011;9689;51.052;13.772;2023-03-11T18:00:17;12.25;;;5.30;;
19113;SDS011;9689;51.052;13.772;2023-03-11T18:05:19;8.80;;;4.38;;
19113;SDS011;9689;51.052;13.772;2023-03-11T18:10:20;9.93;;;4.30;;
19113;SDS011;9689;51.052;13.772;2023-03-11T18:15:22;9.32;;;4.68;;
19113;SDS011;9689;51.052;13.772;2023-03-11T18:20:22;8.52;;;4.35;;
19113;SDS011;9689;51.052;13.772;2023-03-11T18:25:23;7.13;;;4.40;;
19113;SDS011;9689;51.052;13.772;2023-03-11T18:30:25;9.48;;;4.20;;
19113;SDS011;9689;51.052;13.772;2023-03-11T18:35:26;8.63;;;4.03;;
19113;SDS011;9689;51.052;13.772;2023-03-11T18:40:27;7.97;;;4.70;;
19113;SDS011;9689;51.052;13.772;2023-03-11T18:45:29;12.10;;;4.28;;
19113;SDS011;9689;51.052;13.772;2023-03-11T18:50:30;7.03;;;4.70;;
19113;SDS011;9689;51.052;13.772;2023-03-11T18:55:32;10.93;;;5.07;;
19113;SDS011;9689;51.052;13.772;2023-03-11T19:00:35;9.63;;;4.88;;
19113;SDS011;9689;51.052;13.772;2023-03-11T19:05:36;7.75;;;4.50;;
19113;SDS011;9689;51.052;13.772;2023-03-11T19:10:37;10.80;;;4.85;;
19113;SDS011;9689;51.052;13.772;2023-03-11T19:15:39;11.20;;;4.70;;
19113;SDS011;9689;51.052;13.772;2023-03-11T19:20:40;10.63;;;5.68;;
19113;SDS011;9689;51.052;13.772;2023-03-11T19:25:41;9.82;;;5.20;;
19113;SDS011;9689;51.052;13.772;2023-03-11T19:31:02;10.77;;;5.40;;
19113;SDS011;9689;51.052;13.772;2023-03-11T19:36:04;11.68;;;5.25;;
19113;SDS011;9689;51.052;13.772;2023-03-11T19:41:07;8.95;;;5.45;;
19113;SDS011;9689;51.052;13.772;2023-03-11T19:46:12;13.02;;;6.35;;
19113;SDS011;9689;51.052;13.772;2023-03-11T19:51:17;11.23;;;6.43;;
19113;SDS011;9689;51.052;13.772;2023-03-11T19:56:18;13.02;;;6.82;;
19113;SDS011;9689;51.052;13.772;2023-03-11T20:01:21;10.38;;;6.20;;
19113;SDS011;9689;51.052;13.772;2023-03-11T20:06:23;12.57;;;7.00;;
19113;SDS011;9689;51.052;13.772;2023-03-11T20:11:24;16.30;;;7.53;;
19113;SDS011;9689;51.052;13.772;2023-03-11T20:16:26;11.85;;;6.90;;
19113;SDS011;9689;51.052;13.772;2023-03-11T20:21:27;8.70;;;6.25;;
19113;SDS011;9689;51.052;13.772;2023-03-11T20:26:28;12.40;;;6.60;;
19113;SDS011;9689;51.052;13.772;2023-03-11T20:31:30;13.25;;;6.57;;
19113;SDS011;9689;51.052;13.772;2023-03-11T20:36:31;16.05;;;7.40;;
19113;SDS011;9689;51.052;13.772;2023-03-11T20:41:33;11.73;;;6.30;;
19113;SDS011;9689;51.052;13.772;2023-03-11T20:46:37;11.95;;;6.70;;
19113;SDS011;9689;51.052;13.772;2023-03-11T20:51:38;11.30;;;6.45;;
19113;SDS011;9689;51.052;13.772;2023-03-11T20:56:41;11.95;;;6.85;;
19113;SDS011;9689;51.052;13.772;2023-03-11T21:01:43;14.07;;;6.60;;
19113;SDS011;9689;51.052;13.772;2023-03-11T21:06:45;14.95;;;7.07;;
19113;SDS011;9689;51.052;13.772;2023-03-11T21:11:50;11.00;;;6.38;;
19113;SDS011;9689;51.052;13.772;2023-03-11T21:16:52;12.18;;;6.63;;
19113;SDS011;9689;51.052;13.772;2023-03-11T21:21:53;12.82;;;7.30;;
19113;SDS011;9689;51.052;13.772;2023-03-11T21:26:54;14.70;;;7.07;;
19113;SDS011;9689;51.052;13.772;2023-03-11T21:31:56;16.48;;;7.25;;
19113;SDS011;9689;51.052;13.772;2023-03-11T21:36:57;15.00;;;7.13;;
19113;SDS011;9689;51.052;13.772;2023-03-11T21:41:57;12.82;;;7.25;;
19113;SDS011;9689;51.052;13.772;2023-03-11T21:46:59;16.60;;;7.18;;
19113;SDS011;9689;51.052;13.772;2023-03-11T21:52:00;12.40;;;6.38;;
19113;SDS011;9689;51.052;13.772;2023-03-11T21:57:01;13.85;;;7.68;;
19113;SDS011;9689;51.052;13.772;2023-03-11T22:02:04;12.23;;;7.57;;
19113;SDS011;9689;51.052;13.772;2023-03-11T22:07:05;18.38;;;8.15;;
19113;SDS011;9689;51.052;13.772;2023-03-11T22:12:06;16.13;;;8.60;;
19113;SDS011;9689;51.052;13.772;2023-03-11T22:17:08;15.43;;;9.43;;
19113;SDS011;9689;51.052;13.772;2023-03-11T22:22:09;15.82;;;8.77;;
19113;SDS011;9689;51.052;13.772;2023-03-11T22:27:10;19.33;;;9.05;;
19113;SDS011;9689;51.052;13.772;2023-03-11T22:32:12;17.27;;;9.48;;
19113;SDS011;9689;51.052;13.772;2023-03-11T22:37:13;23.63;;;11.25;;
19113;SDS011;9689;51.052;13.772;2023-03-11T22:42:14;16.85;;;8.90;;
19113;SDS011;9689;51.052;13.772;2023-03-11T22:47:16;16.90;;;8.73;;
19113;SDS011;9689;51.052;13.772;2023-03-11T22:52:17;13.90;;;6.65;;
19113;SDS011;9689;51.052;13.772;2023-03-11T22:57:17;17.90;;;6.95;;
19113;SDS011;9689;51.052;13.772;2023-03-11T23:02:19;16.50;;;7.20;;
19113;SDS011;9689;51.052;13.772;2023-03-11T23:07:20;16.13;;;6.82;;
19113;SDS011;9689;51.052;13.772;2023-03-11T23:12:21;16.83;;;8.00;;
19113;SDS011;9689;51.052;13.772;2023-03-11T23:17:23;16.95;;;7.28;;
19113;SDS011;9689;51.052;13.772;2023-03-11T23:22:24;15.55;;;7.30;;
19113;SDS011;9689;51.052;13.772;2023-03-11T23:27:25;15.52;;;7.85;;
19113;SDS011;9689;51.052;13.772;2023-03-11T23:32:28;14.60;;;6.57;;
19113;SDS011;9689;51.052;13.772;2023-03-11T23:37:28;13.35;;;5.97;;
19113;SDS011;9689;51.052;13.772;2023-03-11T23:42:30;14.85;;;6.05;;
19113;SDS011;9689;51.052;13.772;2023-03-11T23:47:33;14.52;;;5.80;;
19113;SDS011;9689;51.052;13.772;2023-03-11T23:52:33;14.23;;;6.15;;
19113;SDS011;9689;51.052;13.772;2023-03-11T23:57:34;11.82;;;5.90;;
